createdAt,value
2023-01-12T00:01:25.778Z,11.10
2023-01-12T00:04:15.206Z,11.10
2023-01-12T00:07:01.123Z,11.20
2023-01-12T00:09:46.552Z,11.20
2023-01-12T00:12:32.156Z,11.20
2023-01-12T00:15:37.828Z,11.10
2023-01-12T00:18:23.493Z,11.20
2023-01-12T00:21:09.148Z,11.30
2023-01-12T00:23:54.832Z,11.20
2023-01-12T00:26:40.334Z,11.20
2023-01-12T00:29:26.609Z,11.10
2023-01-12T00:32:13.356Z,11.10
2023-01-12T00:34:58.904Z,11.10
2023-01-12T00:37:44.462Z,11.00
2023-01-12T00:40:29.967Z,11.00
2023-01-12T00:43:34.284Z,11.10
2023-01-12T00:46:19.738Z,11.10
2023-01-12T00:49:05.841Z,11.00
2023-01-12T00:51:51.277Z,11.00
2023-01-12T00:54:37.141Z,11.00
2023-01-12T00:57:22.345Z,11.00
2023-01-12T01:00:08.342Z,11.00
2023-01-12T01:02:53.972Z,10.90
2023-01-12T01:05:39.813Z,11.00
2023-01-12T01:08:25.308Z,10.90
2023-01-12T01:11:12.363Z,10.80
2023-01-12T01:13:59.157Z,10.80
2023-01-12T01:16:44.837Z,10.90
2023-01-12T01:19:30.237Z,10.90
2023-01-12T01:22:15.958Z,11.00
2023-01-12T01:25:01.651Z,10.90
2023-01-12T01:27:47.194Z,10.90
2023-01-12T01:30:32.446Z,10.80
2023-01-12T01:33:18.028Z,10.90
2023-01-12T01:36:04.065Z,10.90
2023-01-12T01:38:49.922Z,10.80
2023-01-12T01:41:35.463Z,10.90
2023-01-12T01:44:30.238Z,10.80
2023-01-12T01:47:21.815Z,10.80
2023-01-12T01:50:13.697Z,10.80
2023-01-12T01:53:03.780Z,10.90
2023-01-12T01:56:09.443Z,11.00
2023-01-12T01:59:00.000Z,11.00
2023-01-12T02:01:46.031Z,11.00
2023-01-12T02:04:31.781Z,11.00
2023-01-12T02:07:17.243Z,10.90
2023-01-12T02:10:02.792Z,10.90
2023-01-12T02:13:08.472Z,11.00
2023-01-12T02:16:20.716Z,11.00
2023-01-12T02:19:25.203Z,10.80
2023-01-12T02:22:19.945Z,10.70
2023-01-12T02:25:08.586Z,10.80
2023-01-12T02:27:54.261Z,10.80
2023-01-12T02:30:40.013Z,10.80
2023-01-12T02:33:40.632Z,10.80
2023-01-12T02:36:37.557Z,10.80
2023-01-12T02:39:36.733Z,10.80
2023-01-12T02:42:42.163Z,10.70
2023-01-12T02:45:34.654Z,10.90
2023-01-12T02:48:26.504Z,10.90
2023-01-12T02:51:15.188Z,11.00
2023-01-12T02:54:14.382Z,11.00
2023-01-12T02:57:02.845Z,10.90
2023-01-12T02:59:50.769Z,10.90
2023-01-12T03:02:37.023Z,10.80
2023-01-12T03:05:22.411Z,10.90
2023-01-12T03:08:11.348Z,10.90
2023-01-12T03:11:01.333Z,10.90
2023-01-12T03:13:52.032Z,10.90
2023-01-12T03:16:39.178Z,10.90
2023-01-12T03:19:30.405Z,10.90
2023-01-12T03:22:16.961Z,11.00
2023-01-12T03:25:03.404Z,10.90
2023-01-12T03:27:50.505Z,11.00
2023-01-12T03:30:41.163Z,11.00
2023-01-12T03:33:27.040Z,11.00
2023-01-12T03:36:16.114Z,11.00
2023-01-12T03:39:24.997Z,11.10
2023-01-12T03:42:28.476Z,11.10
2023-01-12T03:45:17.293Z,11.10
2023-01-12T03:48:21.209Z,11.20
2023-01-12T03:51:15.721Z,11.10
2023-01-12T03:54:02.088Z,11.10
2023-01-12T03:56:48.875Z,11.00
2023-01-12T03:59:35.004Z,10.90
2023-01-12T04:02:21.676Z,11.00
2023-01-12T04:05:07.602Z,11.40
2023-01-12T04:07:53.229Z,11.70
2023-01-12T04:10:38.938Z,12.10
2023-01-12T04:13:25.230Z,12.50
2023-01-12T04:16:11.324Z,12.70
2023-01-12T04:18:57.209Z,13.10
2023-01-12T04:22:01.992Z,13.30
2023-01-12T04:24:48.784Z,13.70
2023-01-12T04:27:34.212Z,14.00
2023-01-12T04:30:22.788Z,14.20
2023-01-12T04:33:09.448Z,14.30
2023-01-12T04:35:55.049Z,14.40
2023-01-12T04:38:40.859Z,14.50
2023-01-12T04:41:26.320Z,14.60
2023-01-12T04:44:11.900Z,14.60
2023-01-12T04:46:57.810Z,14.60
2023-01-12T04:49:43.419Z,14.70
2023-01-12T04:52:28.966Z,14.80
2023-01-12T04:55:14.821Z,14.80
2023-01-12T04:58:00.490Z,14.90
2023-01-12T05:00:46.093Z,14.90
2023-01-12T05:03:31.738Z,14.90
2023-01-12T05:06:17.363Z,15.00
2023-01-12T05:09:21.727Z,14.80
2023-01-12T05:12:07.121Z,15.00
2023-01-12T05:14:52.816Z,15.00
2023-01-12T05:17:38.587Z,15.10
2023-01-12T05:20:24.272Z,15.10
2023-01-12T05:23:10.074Z,15.10
2023-01-12T05:26:05.412Z,15.10
2023-01-12T05:28:50.818Z,15.10
2023-01-12T05:31:36.171Z,15.10
2023-01-12T05:34:21.800Z,15.10
2023-01-12T05:37:07.325Z,15.20
2023-01-12T05:39:52.947Z,15.20
2023-01-12T05:42:57.577Z,15.20
2023-01-12T05:45:43.139Z,15.20
2023-01-12T05:48:28.745Z,15.20
2023-01-12T05:51:14.753Z,15.30
2023-01-12T05:54:00.476Z,15.20
2023-01-12T05:56:47.494Z,15.30
2023-01-12T05:59:33.869Z,15.30
2023-01-12T06:02:22.084Z,15.30
2023-01-12T06:05:09.585Z,15.30
2023-01-12T06:07:55.177Z,15.40
2023-01-12T06:10:40.790Z,15.40
2023-01-12T06:13:44.831Z,15.40
2023-01-12T06:16:30.574Z,15.40
2023-01-12T06:19:15.979Z,15.40
2023-01-12T06:22:01.734Z,15.40
2023-01-12T06:24:49.244Z,15.50
2023-01-12T06:27:35.977Z,15.50
2023-01-12T06:30:21.641Z,15.50
2023-01-12T06:33:07.343Z,15.40
2023-01-12T06:35:54.007Z,15.50
2023-01-12T06:38:39.887Z,15.50
2023-01-12T06:41:45.815Z,15.40
2023-01-12T06:44:31.286Z,15.40
2023-01-12T06:47:16.850Z,15.50
2023-01-12T06:50:02.506Z,15.50
2023-01-12T06:52:48.016Z,15.50
2023-01-12T06:55:34.258Z,15.50
2023-01-12T06:58:19.769Z,15.60
2023-01-12T07:01:05.522Z,15.60
2023-01-12T07:03:51.048Z,15.60
2023-01-12T07:06:36.814Z,15.60
2023-01-12T07:09:22.393Z,15.60
2023-01-12T07:12:08.046Z,15.60
2023-01-12T07:14:53.572Z,15.60
2023-01-12T07:17:39.409Z,15.60
2023-01-12T07:20:25.503Z,15.50
2023-01-12T07:23:11.315Z,15.50
2023-01-12T07:25:58.163Z,15.50
2023-01-12T07:28:43.737Z,15.50
2023-01-12T07:31:29.568Z,15.60
2023-01-12T07:34:15.029Z,15.50
2023-01-12T07:37:00.773Z,15.50
2023-01-12T07:39:46.380Z,15.50
2023-01-12T07:42:33.475Z,15.50
2023-01-12T07:45:19.355Z,15.40
2023-01-12T07:48:05.249Z,15.50
2023-01-12T07:50:51.155Z,15.50
2023-01-12T07:53:36.717Z,15.50
2023-01-12T07:56:22.376Z,15.50
2023-01-12T07:59:08.092Z,15.50
2023-01-12T08:01:54.591Z,15.40
2023-01-12T08:04:40.277Z,15.40
2023-01-12T08:07:26.741Z,15.40
2023-01-12T08:10:13.016Z,15.40
2023-01-12T08:12:58.517Z,15.50
2023-01-12T08:15:46.558Z,15.40
2023-01-12T08:18:34.405Z,15.40
2023-01-12T08:21:22.183Z,15.40
2023-01-12T08:24:09.422Z,15.40
2023-01-12T08:26:56.193Z,15.40
2023-01-12T08:29:44.140Z,18.10
2023-01-12T08:32:29.956Z,15.40
2023-01-12T08:35:20.080Z,15.50
2023-01-12T08:38:05.604Z,15.50
2023-01-12T08:41:10.035Z,15.50
2023-01-12T08:44:27.832Z,15.40
2023-01-12T08:47:17.955Z,15.50
2023-01-12T08:50:03.986Z,15.50
2023-01-12T08:52:49.656Z,15.50
2023-01-12T08:55:36.456Z,15.50
2023-01-12T08:58:22.624Z,15.50
2023-01-12T09:01:09.516Z,15.50
2023-01-12T09:03:58.469Z,15.50
2023-01-12T09:06:45.076Z,15.50
2023-01-12T09:09:30.777Z,15.50
2023-01-12T09:12:16.676Z,15.50
2023-01-12T09:15:02.120Z,15.50
2023-01-12T09:17:52.475Z,15.40
2023-01-12T09:20:38.241Z,15.40
2023-01-12T09:23:23.946Z,15.40
2023-01-12T09:26:12.635Z,15.40
2023-01-12T09:28:59.343Z,15.50
2023-01-12T09:31:45.739Z,15.50
2023-01-12T09:34:30.958Z,15.50
2023-01-12T09:37:16.801Z,15.50
2023-01-12T09:40:04.411Z,15.50
2023-01-12T09:43:09.557Z,15.50
2023-01-12T09:46:13.916Z,15.60
2023-01-12T09:48:59.270Z,15.60
2023-01-12T09:52:00.150Z,15.60
2023-01-12T09:54:47.849Z,15.60
2023-01-12T09:57:34.695Z,15.60
2023-01-12T10:00:20.660Z,15.70
2023-01-12T10:03:11.802Z,15.60
2023-01-12T10:06:00.497Z,15.70
2023-01-12T10:08:46.131Z,15.60
2023-01-12T10:11:40.881Z,15.60
2023-01-12T10:14:29.283Z,15.60
2023-01-12T10:17:25.589Z,15.60
2023-01-12T10:20:11.184Z,15.60
2023-01-12T10:23:01.443Z,15.60
2023-01-12T10:25:51.257Z,15.60
2023-01-12T10:28:37.162Z,15.60
2023-01-12T10:31:23.795Z,15.70
2023-01-12T10:34:11.184Z,15.70
2023-01-12T10:37:04.291Z,15.70
2023-01-12T10:39:51.001Z,15.70
2023-01-12T10:42:55.779Z,15.70
2023-01-12T10:45:43.733Z,15.70
2023-01-12T10:48:29.105Z,15.70
2023-01-12T10:51:23.527Z,15.70
2023-01-12T10:54:10.403Z,18.40
2023-01-12T10:56:58.812Z,15.70
2023-01-12T10:59:50.671Z,15.70
2023-01-12T11:02:45.435Z,15.70
2023-01-12T11:05:38.638Z,15.70
2023-01-12T11:08:27.855Z,15.60
2023-01-12T11:11:23.549Z,15.70
2023-01-12T11:14:22.672Z,15.70
2023-01-12T11:17:33.128Z,15.70
2023-01-12T11:20:34.474Z,15.70
2023-01-12T11:23:25.251Z,15.70
2023-01-12T11:26:31.161Z,15.80
2023-01-12T11:29:37.953Z,15.80
2023-01-12T11:32:26.729Z,15.80
2023-01-12T11:35:27.017Z,15.80
2023-01-12T11:38:15.769Z,15.80
2023-01-12T11:41:01.540Z,15.80
2023-01-12T11:43:55.922Z,15.80
2023-01-12T11:46:42.482Z,15.80
2023-01-12T11:49:35.153Z,15.80
2023-01-12T11:52:20.350Z,15.80
2023-01-12T11:55:05.811Z,15.90
2023-01-12T11:58:19.421Z,15.80
2023-01-12T12:01:10.792Z,15.80
2023-01-12T12:03:59.489Z,15.80
2023-01-12T12:06:56.182Z,15.80
2023-01-12T12:09:41.539Z,15.80
2023-01-12T12:12:35.934Z,15.90
2023-01-12T12:15:36.415Z,15.80
2023-01-12T12:18:22.266Z,15.90
2023-01-12T12:21:26.431Z,15.90
2023-01-12T12:24:14.971Z,15.90
2023-01-12T12:27:06.830Z,15.90
2023-01-12T12:29:52.869Z,15.90
2023-01-12T12:32:59.033Z,15.90
2023-01-12T12:35:50.938Z,15.90
2023-01-12T12:38:48.074Z,15.70
2023-01-12T12:41:55.365Z,15.70
2023-01-12T12:44:59.624Z,15.70
2023-01-12T12:48:03.942Z,15.80
2023-01-12T12:51:07.717Z,15.80
2023-01-12T12:53:54.534Z,15.90
2023-01-12T12:56:40.314Z,15.90
2023-01-12T12:59:45.938Z,15.90
2023-01-12T13:02:53.115Z,15.90
2023-01-12T13:05:43.558Z,15.90
2023-01-12T13:08:34.212Z,15.90
2023-01-12T13:11:20.320Z,16.00
2023-01-12T13:14:16.537Z,16.00
2023-01-12T13:17:20.316Z,16.00
2023-01-12T13:20:13.681Z,16.00
2023-01-12T13:23:25.559Z,15.90
2023-01-12T13:26:23.706Z,16.00
2023-01-12T13:29:27.932Z,16.00
2023-01-12T13:32:34.465Z,16.00
2023-01-12T13:35:24.371Z,16.00
2023-01-12T13:38:28.776Z,16.00
2023-01-12T13:41:14.697Z,16.00
2023-01-12T13:44:00.600Z,16.00
2023-01-12T13:46:47.582Z,16.00
2023-01-12T13:49:34.146Z,15.90
2023-01-12T13:52:22.500Z,15.90
2023-01-12T13:55:28.065Z,15.90
2023-01-12T13:58:17.704Z,16.00
2023-01-12T14:01:03.619Z,16.00
2023-01-12T14:04:07.911Z,15.90
2023-01-12T14:07:02.638Z,15.90
2023-01-12T14:10:08.513Z,15.90
2023-01-12T14:13:12.791Z,16.00
2023-01-12T14:16:19.333Z,16.00
2023-01-12T14:19:27.765Z,16.00
2023-01-12T14:22:17.571Z,16.00
2023-01-12T14:25:23.015Z,16.00
2023-01-12T14:28:15.424Z,17.40
2023-01-12T14:31:01.371Z,16.00
2023-01-12T14:33:51.621Z,16.00
2023-01-12T14:36:44.005Z,16.00
2023-01-12T14:39:31.207Z,16.00
2023-01-12T14:42:35.847Z,16.00
2023-01-12T14:45:41.943Z,16.00
2023-01-12T14:48:29.035Z,16.00
2023-01-12T14:51:27.179Z,16.00
2023-01-12T14:54:12.657Z,15.90
2023-01-12T14:56:59.708Z,16.00
2023-01-12T14:59:46.289Z,16.00
2023-01-12T15:02:34.939Z,16.00
2023-01-12T15:05:27.644Z,16.00
2023-01-12T15:08:13.459Z,16.00
2023-01-12T15:11:07.705Z,16.00
2023-01-12T15:13:58.141Z,16.00
2023-01-12T15:17:02.527Z,16.00
2023-01-12T15:20:06.747Z,16.00
2023-01-12T15:23:10.725Z,16.00
2023-01-12T15:25:56.109Z,16.00
2023-01-12T15:28:42.192Z,16.00
2023-01-12T15:31:32.455Z,16.00
2023-01-12T15:34:17.907Z,16.00
2023-01-12T15:37:03.258Z,16.00
2023-01-12T15:39:49.178Z,16.00
2023-01-12T15:42:34.703Z,16.00
2023-01-12T15:45:27.215Z,16.00
2023-01-12T15:48:14.176Z,16.00
2023-01-12T15:50:59.479Z,16.10
2023-01-12T15:53:45.881Z,16.10
2023-01-12T15:56:31.270Z,16.00
2023-01-12T15:59:16.981Z,16.10
2023-01-12T16:02:03.588Z,16.10
2023-01-12T16:04:49.202Z,16.10
2023-01-12T16:07:34.819Z,16.10
2023-01-12T16:10:21.032Z,16.10
2023-01-12T16:13:09.482Z,16.10
2023-01-12T16:15:54.896Z,16.10
2023-01-12T16:18:40.534Z,16.10
2023-01-12T16:21:26.950Z,16.10
2023-01-12T16:24:12.415Z,16.10
2023-01-12T16:26:58.021Z,16.10
2023-01-12T16:29:44.011Z,16.10
2023-01-12T16:32:29.390Z,16.10
2023-01-12T16:35:15.489Z,16.10
2023-01-12T16:38:03.153Z,16.00
2023-01-12T16:40:50.658Z,16.00
2023-01-12T16:43:37.350Z,16.10
2023-01-12T16:46:23.278Z,16.10
2023-01-12T16:49:09.039Z,16.10
2023-01-12T16:51:55.305Z,16.10
2023-01-12T16:54:42.727Z,16.10
2023-01-12T16:57:28.173Z,16.10
2023-01-12T17:00:15.564Z,16.10
2023-01-12T17:03:02.637Z,16.10
2023-01-12T17:05:49.016Z,16.10
2023-01-12T17:08:34.841Z,16.10
2023-01-12T17:11:20.461Z,16.20
2023-01-12T17:14:23.025Z,16.10
2023-01-12T17:17:09.509Z,16.20
2023-01-12T17:19:56.816Z,16.20
2023-01-12T17:22:42.721Z,16.20
2023-01-12T17:25:28.700Z,16.20
2023-01-12T17:28:14.497Z,16.20
2023-01-12T17:31:00.355Z,16.20
2023-01-12T17:33:46.583Z,16.20
2023-01-12T17:36:32.241Z,16.20
2023-01-12T17:39:17.969Z,16.20
2023-01-12T17:42:22.158Z,16.20
2023-01-12T17:45:07.737Z,16.20
2023-01-12T17:47:53.254Z,16.20
2023-01-12T17:50:39.052Z,16.20
2023-01-12T17:53:24.783Z,16.20
2023-01-12T17:56:11.309Z,16.20
2023-01-12T17:58:56.781Z,16.20
2023-01-12T18:01:42.854Z,14.30
2023-01-12T18:04:28.475Z,16.10
2023-01-12T18:07:14.249Z,16.20
2023-01-12T18:10:00.030Z,16.20
2023-01-12T18:12:45.622Z,16.20
2023-01-12T18:15:31.363Z,16.20
2023-01-12T18:18:16.996Z,16.20
2023-01-12T18:21:03.221Z,16.20
2023-01-12T18:23:49.265Z,16.20
2023-01-12T18:26:35.970Z,16.20
2023-01-12T18:29:21.685Z,16.20
2023-01-12T18:32:07.462Z,16.20
2023-01-12T18:34:52.903Z,16.10
2023-01-12T18:37:38.774Z,16.20
2023-01-12T18:40:24.263Z,16.20
2023-01-12T18:43:10.086Z,16.20
2023-01-12T18:45:55.893Z,16.10
2023-01-12T18:48:43.125Z,16.20
2023-01-12T18:51:47.321Z,16.20
2023-01-12T18:54:33.392Z,16.10
2023-01-12T18:57:20.723Z,16.20
2023-01-12T19:00:17.142Z,16.20
2023-01-12T19:03:04.457Z,16.20
2023-01-12T19:06:01.057Z,16.30
2023-01-12T19:09:05.081Z,16.10
2023-01-12T19:11:50.542Z,15.90
2023-01-12T19:14:54.670Z,15.80
2023-01-12T19:17:41.996Z,15.60
2023-01-12T19:20:31.741Z,15.50
2023-01-12T19:23:35.962Z,15.50
2023-01-12T19:26:39.831Z,15.40
2023-01-12T19:29:25.266Z,15.40
2023-01-12T19:32:10.948Z,15.30
2023-01-12T19:35:05.812Z,15.30
2023-01-12T19:37:55.334Z,15.20
2023-01-12T19:40:46.573Z,15.20
2023-01-12T19:43:34.050Z,15.20
2023-01-12T19:46:19.500Z,15.20
2023-01-12T19:49:05.180Z,15.20
2023-01-12T19:51:50.849Z,15.10
2023-01-12T19:54:36.117Z,15.10
2023-01-12T19:57:21.781Z,15.10
2023-01-12T20:00:08.756Z,15.10
2023-01-12T20:03:00.264Z,15.10
2023-01-12T20:05:50.942Z,15.00
2023-01-12T20:08:36.624Z,15.00
2023-01-12T20:11:22.528Z,14.10
2023-01-12T20:14:08.150Z,15.00
2023-01-12T20:16:53.809Z,15.00
2023-01-12T20:19:39.369Z,15.00
2023-01-12T20:22:24.932Z,15.00
2023-01-12T20:25:11.265Z,15.00
2023-01-12T20:27:57.674Z,15.00
2023-01-12T20:30:43.765Z,15.00
2023-01-12T20:33:29.669Z,15.00
2023-01-12T20:36:16.078Z,15.00
2023-01-12T20:39:01.629Z,15.00
2023-01-12T20:41:48.988Z,15.10
2023-01-12T20:44:34.316Z,15.00
2023-01-12T20:47:20.153Z,15.00
2023-01-12T20:50:07.563Z,15.10
2023-01-12T20:52:54.229Z,15.00
2023-01-12T20:55:50.200Z,15.00
2023-01-12T20:58:36.107Z,15.00
2023-01-12T21:01:22.309Z,15.10
2023-01-12T21:04:07.869Z,15.00
2023-01-12T21:06:53.539Z,15.00
2023-01-12T21:09:39.891Z,15.00
2023-01-12T21:12:27.533Z,15.00
2023-01-12T21:15:13.629Z,15.00
2023-01-12T21:17:59.179Z,15.00
2023-01-12T21:20:46.218Z,15.00
2023-01-12T21:23:32.003Z,15.00
2023-01-12T21:26:17.657Z,15.00
2023-01-12T21:29:03.428Z,15.00
2023-01-12T21:31:49.284Z,15.00
2023-01-12T21:34:34.481Z,15.10
2023-01-12T21:37:20.365Z,15.00
2023-01-12T21:40:06.190Z,15.00
2023-01-12T21:43:09.903Z,15.00
2023-01-12T21:45:57.452Z,15.00
2023-01-12T21:48:43.767Z,15.00
2023-01-12T21:51:29.116Z,15.00
2023-01-12T21:54:14.775Z,15.10
2023-01-12T21:57:00.341Z,15.10
2023-01-12T21:59:46.018Z,15.10
2023-01-12T22:02:34.055Z,15.00
2023-01-12T22:05:20.756Z,15.10
2023-01-12T22:08:06.411Z,15.10
2023-01-12T22:10:52.104Z,15.00
2023-01-12T22:13:37.773Z,15.00
2023-01-12T22:16:23.345Z,15.10
2023-01-12T22:19:08.944Z,15.10
2023-01-12T22:21:54.565Z,15.10
2023-01-12T22:24:40.281Z,15.10
2023-01-12T22:27:26.757Z,15.10
2023-01-12T22:30:15.940Z,15.10
2023-01-12T22:33:01.319Z,15.10
2023-01-12T22:35:47.770Z,15.10
2023-01-12T22:38:33.501Z,15.10
2023-01-12T22:41:21.782Z,15.10
2023-01-12T22:44:07.342Z,15.00
2023-01-12T22:46:53.162Z,15.10
2023-01-12T22:49:39.225Z,14.80
2023-01-12T22:52:24.814Z,14.30
2023-01-12T22:55:10.554Z,14.00
2023-01-12T22:57:56.046Z,13.70
2023-01-12T23:00:43.799Z,13.50
2023-01-12T23:03:30.274Z,13.40
2023-01-12T23:06:16.527Z,13.20
2023-01-12T23:09:01.999Z,13.00
2023-01-12T23:11:47.680Z,13.00
2023-01-12T23:14:33.381Z,13.00
2023-01-12T23:17:19.092Z,13.00
2023-01-12T23:20:04.860Z,13.00
2023-01-12T23:22:50.313Z,12.90
2023-01-12T23:25:36.349Z,12.80
2023-01-12T23:28:21.816Z,12.70
2023-01-12T23:31:09.145Z,12.70
2023-01-12T23:33:55.214Z,12.70
2023-01-12T23:36:40.579Z,12.70
2023-01-12T23:39:26.243Z,12.60
2023-01-12T23:42:11.832Z,12.50
2023-01-12T23:44:57.535Z,12.50
2023-01-12T23:47:43.022Z,12.50
2023-01-12T23:50:28.682Z,12.50
2023-01-12T23:53:14.693Z,12.60
2023-01-12T23:56:05.402Z,12.60
2023-01-12T23:58:50.758Z,12.60
